Weather History for Rickenbacker, OH

Change the Weather History Date:

Friday, March 15, 2013

  Actual Average Record
Temperature  
Mean Temperature 40 °F -  
Max Temperature 51 °F 48 °F 69 °F (2002)
Min Temperature 29 °F 30 °F 23 °F (1997)
Degree Days  
Heating Degree Days 25    
Moisture  
Dew Point 29 °F    
Average Humidity 65    
Maximum Humidity 86    
Minimum Humidity 48    
Precipitation  
Precipitation 0.00 in - - ()
Sea Level Pressure  
Sea Level Pressure 29.98 in    
Wind  
Wind Speed 5 mph (SW)    
Max Wind Speed 14 mph    
Max Gust Speed 16 mph    
Visibility 10 miles    
Events Rain    
Averages and records for this station are not official NWS values.
T = Trace of Precipitation, MM = Missing Value Source: NWS Daily Summary

Daily Weather History Graph

Daily Weather History Graph

Search for Another Location

Airport:

Trip Planner

Search our weather history database for the weather conditions in past years. The results will help you decide how hot, cold, wet, or windy it might be!

Date:

Astronomy

Mar. 15, 2013 Rise Set
Actual Time 7:42 AM EDT 7:38 PM EDT
Civil Twilight 7:15 AM EDT 8:05 PM EDT
Nautical Twilight 6:44 AM EDT 8:37 PM EDT
Astronomical Twilight 6:12 AM EDT 9:09 PM EDT
Moon 9:32 AM EDT (3/15) 11:51 PM EDT (3/15)
Length of Visible Light 12h 49m
Length of Day
11h 56m
Waxing Crescent, 15% of the Moon is Illuminated
Mar 15
Waxing Crescent
Mar 19
First Quarter
Mar 27
Full
Apr 3
Last Quarter
Apr 10
New

Hourly Weather History & Observations

Time (EDT) Temp. Windchill Dew Point Humidity Pressure Visibility Wind Dir Wind Speed Gust Speed Precip Events Conditions
12:15 AM 30.7 °F - 20.5 °F 66% 30.14 in 10.0 mi Calm Calm - N/A   Clear
12:35 AM 30.7 °F 27.3 °F 22.1 °F 70% 30.15 in 10.0 mi South 3.5 mph - N/A   Clear
12:55 AM 31.5 °F 28.1 °F 21.4 °F 66% 30.15 in 10.0 mi SSW 3.5 mph - N/A   Clear
1:15 AM 30.9 °F 27.5 °F 20.7 °F 66% 30.15 in 10.0 mi South 3.5 mph - N/A   Clear
1:35 AM 29.8 °F 24.9 °F 21.0 °F 70% 30.13 in 10.0 mi South 4.6 mph - N/A   Clear
1:55 AM 30.0 °F 25.2 °F 21.0 °F 69% 30.13 in 10.0 mi SSW 4.6 mph - N/A   Clear
2:15 AM 30.6 °F 25.8 °F 20.5 °F 66% 30.13 in 10.0 mi SSW 4.6 mph - N/A   Clear
2:35 AM 30.7 °F 24.9 °F 20.5 °F 66% 30.13 in 10.0 mi SSW 5.8 mph - N/A   Clear
2:55 AM 30.6 °F 25.8 °F 20.8 °F 67% 30.13 in 10.0 mi SSW 4.6 mph - N/A   Clear
3:15 AM 29.8 °F 23.9 °F 21.2 °F 70% 30.13 in 10.0 mi SW 5.8 mph - N/A   Scattered Clouds
3:35 AM 30.4 °F 24.5 °F 21.6 °F 70% 30.11 in 10.0 mi SSW 5.8 mph - N/A   Scattered Clouds
3:55 AM 30.7 °F 24.9 °F 21.4 °F 68% 30.10 in 10.0 mi South 5.8 mph - N/A   Clear
4:15 AM 30.2 °F 24.3 °F 21.6 °F 70% 30.09 in 10.0 mi South 5.8 mph - N/A   Clear
4:35 AM 30.0 °F 24.1 °F 21.6 °F 71% 30.08 in 10.0 mi South 5.8 mph - N/A   Clear
4:55 AM 29.7 °F 23.7 °F 21.7 °F 72% 30.08 in 10.0 mi South 5.8 mph - N/A   Clear
5:15 AM 29.7 °F 22.8 °F 21.6 °F 72% 30.07 in 10.0 mi South 6.9 mph - N/A   Clear
5:35 AM 29.3 °F 23.2 °F 21.0 °F 71% 30.07 in 10.0 mi South 5.8 mph - N/A   Clear
5:55 AM 29.8 °F 24.9 °F 21.2 °F 70% 30.07 in 10.0 mi South 4.6 mph - N/A   Clear
6:15 AM 29.8 °F 24.9 °F 20.8 °F 69% 30.06 in 10.0 mi South 4.6 mph - N/A   Scattered Clouds
6:35 AM 30.6 °F 24.7 °F 22.1 °F 71% 30.05 in 10.0 mi South 5.8 mph - N/A   Mostly Cloudy
6:55 AM 30.4 °F 24.5 °F 22.3 °F 72% 30.04 in 10.0 mi South 5.8 mph - N/A   Scattered Clouds
7:15 AM 30.0 °F 24.1 °F 22.1 °F 72% 30.04 in 10.0 mi South 5.8 mph - N/A   Clear
7:35 AM 29.8 °F 23.0 °F 22.5 °F 74% 30.03 in 10.0 mi South 6.9 mph - N/A   Clear
7:55 AM 30.6 °F 25.8 °F 23.0 °F 74% 30.03 in 10.0 mi South 4.6 mph - N/A   Clear
8:15 AM 30.9 °F 27.5 °F 23.7 °F 75% 30.03 in 10.0 mi South 3.5 mph - N/A   Clear
8:35 AM 31.3 °F 26.6 °F 24.6 °F 76% 30.02 in 10.0 mi South 4.6 mph - N/A   Clear
8:55 AM 32.4 °F 26.9 °F 25.9 °F 77% 30.02 in 10.0 mi South 5.8 mph - N/A   Clear
9:15 AM 33.4 °F 28.1 °F 26.8 °F 77% 30.02 in 10.0 mi South 5.8 mph - N/A   Clear
9:35 AM 34.2 °F 28.2 °F 26.8 °F 74% 30.01 in 10.0 mi South 6.9 mph - N/A   Clear
9:55 AM 36.0 °F 28.5 °F 27.9 °F 72% 30.01 in 10.0 mi SSW 10.4 mph - N/A   Clear
10:15 AM 37.6 °F 31.6 °F 28.8 °F 70% 30.01 in 10.0 mi SW 8.1 mph - N/A   Clear
10:35 AM 38.5 °F 33.4 °F 29.1 °F 69% 30.01 in 10.0 mi SW 6.9 mph - N/A   Clear
10:55 AM 39.7 °F 33.7 °F 29.7 °F 67% 30.00 in 10.0 mi SSW 9.2 mph - N/A   Clear
11:55 AM 43.5 °F 38.9 °F 31.3 °F 62% 29.96 in 10.0 mi SW 8.1 mph - N/A   Clear
12:15 PM 44.4 °F 40.0 °F 30.9 °F 59% 29.95 in 10.0 mi WSW 8.1 mph - N/A   Clear
12:35 PM 45.0 °F 40.6 °F 31.1 °F 58% 29.95 in 10.0 mi WSW 8.1 mph - N/A   Clear
12:55 PM 45.7 °F 41.0 °F 31.5 °F 58% 29.94 in 10.0 mi WSW 9.2 mph - N/A   Clear
1:15 PM 46.6 °F - 31.8 °F 56% 29.94 in 10.0 mi West 8.1 mph - N/A   Clear
1:35 PM 47.7 °F - 31.6 °F 54% 29.94 in 10.0 mi West 10.4 mph - N/A   Clear
1:55 PM 48.7 °F - 32.0 °F 52% 29.93 in 10.0 mi West 8.1 mph - N/A   Clear
2:15 PM 49.1 °F - 32.0 °F 52% 29.93 in 10.0 mi WSW 6.9 mph - N/A   Clear
2:35 PM 49.5 °F - 31.8 °F 51% 29.92 in 10.0 mi WSW 10.4 mph - N/A   Clear
2:55 PM 49.6 °F - 32.2 °F 51% 29.90 in 10.0 mi West 11.5 mph - N/A   Clear
3:15 PM 49.8 °F - 32.5 °F 51% 29.89 in 10.0 mi SSW 6.9 mph - N/A   Clear
3:35 PM 50.0 °F - 32.5 °F 51% 29.88 in 10.0 mi SW 9.2 mph - N/A   Scattered Clouds
3:55 PM 51.1 °F - 32.2 °F 48% 29.88 in 10.0 mi WSW 13.8 mph - N/A   Scattered Clouds
4:15 PM 51.6 °F - 32.9 °F 49% 29.88 in 10.0 mi WSW 10.4 mph - N/A   Clear
4:35 PM 51.8 °F - 33.3 °F 49% 29.87 in 10.0 mi West 11.5 mph 16.1 mph N/A   Clear
4:55 PM 51.8 °F - 33.8 °F 50% 29.87 in 10.0 mi West 10.4 mph - N/A   Clear
5:15 PM 51.8 °F - 33.8 °F 50% 29.87 in 10.0 mi West 11.5 mph - N/A   Mostly Cloudy
5:35 PM 51.6 °F - 34.0 °F 51% 29.87 in 10.0 mi West 10.4 mph - N/A   Mostly Cloudy
5:55 PM 51.6 °F - 34.0 °F 51% 29.87 in 10.0 mi West 8.1 mph - N/A   Clear
6:15 PM 51.4 °F - 34.2 °F 52% 29.87 in 10.0 mi West 8.1 mph - N/A   Clear
6:35 PM 51.4 °F - 34.5 °F 52% 29.86 in 10.0 mi West 8.1 mph - N/A   Scattered Clouds
6:55 PM 51.1 °F - 34.2 °F 52% 29.87 in 10.0 mi West 10.4 mph - N/A   Mostly Cloudy
7:15 PM 50.5 °F - 34.0 °F 53% 29.87 in 10.0 mi West 6.9 mph - N/A   Overcast
7:35 PM 50.0 °F - 33.8 °F 54% 29.87 in 10.0 mi West 6.9 mph - N/A   Overcast
7:55 PM 49.6 °F - 34.0 °F 55% 29.88 in 10.0 mi West 6.9 mph - N/A   Overcast
8:15 PM 48.9 °F - 34.7 °F 58% 29.88 in 10.0 mi West 6.9 mph - N/A   Overcast
8:35 PM 48.4 °F - 35.1 °F 60% 29.88 in 10.0 mi WSW 5.8 mph - N/A   Overcast
8:55 PM 47.7 °F - 36.0 °F 64% 29.88 in 10.0 mi WSW 3.5 mph - N/A   Drizzle
9:15 PM 47.1 °F - 37.0 °F 68% 29.86 in 10.0 mi Calm Calm - N/A   Drizzle
9:35 PM 46.4 °F - 38.1 °F 73% 29.86 in 10.0 mi Calm Calm - N/A   Drizzle
9:55 PM 45.5 °F 44.2 °F 38.8 °F 78% 29.84 in 7.0 mi ESE 3.5 mph - N/A Rain Light Rain
10:15 PM 44.8 °F 43.3 °F 39.2 °F 81% 29.85 in 7.0 mi ENE 3.5 mph - N/A Rain Light Rain
10:35 PM 44.4 °F 42.9 °F 39.6 °F 83% 29.88 in 5.0 mi West 3.5 mph - N/A Rain Light Rain
10:55 PM 44.6 °F 43.1 °F 39.9 °F 84% 29.88 in 5.0 mi WSW 3.5 mph - N/A Rain Light Rain
11:15 PM 43.7 °F 41.1 °F 39.6 °F 85% 29.88 in 4.0 mi SSW 4.6 mph - N/A Rain Light Rain
11:35 PM 43.7 °F 42.1 °F 39.4 °F 85% 29.86 in 4.0 mi South 3.5 mph - N/A Rain Light Rain
11:55 PM 43.3 °F 40.7 °F 39.4 °F 86% 29.84 in 4.0 mi ESE 4.6 mph - N/A Rain Light Rain